الصفحة الرئيسية
صور الأقمار الصناعية توقعات الطقس لمدة 15 يوممناخالتوقعات البحرية إعصار برق مطارأسئلة وأجوبة النشرة الإخبارية حول
طقس : أوروبا أفريقيا أمريكا الشمالية أمريكا الجنوبية آسيا أستراليا-أوقيانوسيا آخرون
لغات جهة اتصال

سكاكا, السعودية

دائرة عرض: 29-47N, خط طول: 040-06E, ارتفاع: 689 m


METAR: OESK 260400Z 32008KT CAVOK 26/09 Q1010 NOSIG
short-TAF: عفا عليها الزمن (1133 ساعات)
long-TAF: OESK 251030Z 2512/2618 30008G18KT CAVOK BECMG 2518/2520 30012KT

زمن: 08:04 (05:04 UTC)

مراقبة الطقس الحالي

تاريخ و وقت الإصدار 1 ساعة و 4 دقيقة قبل الساعة 04:00 UTC  
ريح 08 kt من الشمال
درجة الحرارة 26°C
الرطوبة 34%
ضغط 1010 hPa
الرؤية 10 km أو أكثر
الغيوم لا تقل 1500 م وليس السحاب الأسود

تغيير وحدة

توقعات

تاريخ و وقت الإصدار 18 ساعات و 28 دقيقة قبل الساعة 10:36 UTC  
صالحة من التوقعات 25 في 12 بالتوقيت العالمي إلى 26 في 18 بالتوقيت العالمي
ريح 08 kt من الغرب/ تتزايد حتى 18 kt
الرؤية 10 km أو أكثر
الغيوم لا تقل 1500 م وليس السحاب الأسود
أصبح
من 25 في 18 بالتوقيت العالمي إلى 25 في 20 بالتوقيت العالمي
ريح 12 kt من الغرب/
المعلومات الواردة في هذا الموقع يخضع إخلاء
طقس : أوروبا أفريقيا أمريكا الشمالية أمريكا الجنوبية آسيا أستراليا-أوقيانوسيا آخرون
صور الأقمار الصناعية توقعات الطقس لمدة 15 يوممناخالتوقعات البحرية إعصار برق مطارأسئلة وأجوبة لغات جهة اتصال النشرة الإخبارية حول